New Dayton, Canada
Current Conditions -  °F | °C
As of 8:00 AM on Saturday 20 Dec 2014 (Local Time) from CYQL Reporting Station
Scattered Clouds Scattered Clouds  
Wind Chill: 24°   Ceiling: Unl
Heat Index: 36°   Visibility: 40mi
Dew Point: 23°   Wind: 24mph
Humidity: 60%   Direction: 260°W
Pressure: 29.76"   Gusts: 30mph
Location:  49.42°N, 112.38°W
Report Text: CYQL 201500Z 26021G26KT 40SM SCT230 02/M05 A2976 RMK CI4 SLP106
Loading
Personal Weather Stations






























Interactive Weather Map New forecast layout! Learn more

10-Day Weather Forecast

Advertisements
Track Severe Weather on mobile